createdAt,value
2019-01-19T00:02:23.921Z,39.90
2019-01-19T00:05:42.169Z,46.43
2019-01-19T00:08:35.501Z,43.43
2019-01-19T00:11:39.208Z,49.27
2019-01-19T00:15:04.100Z,47.87
2019-01-19T00:17:58.150Z,48.80
2019-01-19T00:21:10.293Z,44.20
2019-01-19T00:24:18.540Z,50.20
2019-01-19T00:27:32.348Z,57.90
2019-01-19T00:30:40.760Z,53.67
2019-01-19T00:33:28.093Z,51.20
2019-01-19T00:36:37.625Z,45.77
2019-01-19T00:39:18.562Z,45.07
2019-01-19T00:42:19.273Z,67.30
2019-01-19T00:45:27.536Z,61.63
2019-01-19T00:48:42.005Z,56.23
2019-01-19T00:52:00.501Z,48.87
2019-01-19T00:54:56.957Z,35.90
2019-01-19T00:58:03.278Z,79.60
2019-01-19T01:00:46.021Z,44.63
2019-01-19T01:03:51.481Z,47.03
2019-01-19T01:06:50.121Z,47.90
2019-01-19T01:09:49.744Z,53.20
2019-01-19T01:13:06.773Z,38.57
2019-01-19T01:16:17.551Z,51.23
2019-01-19T01:19:17.941Z,43.70
2019-01-19T01:22:20.536Z,81.23
2019-01-19T01:25:16.333Z,56.57
2019-01-19T01:28:27.313Z,60.57
2019-01-19T01:31:10.962Z,48.23
2019-01-19T01:34:16.185Z,47.33
2019-01-19T01:37:01.615Z,40.40
2019-01-19T01:40:09.367Z,50.90
2019-01-19T01:42:55.373Z,42.00
2019-01-19T01:46:04.973Z,47.67
2019-01-19T01:48:56.737Z,49.70
2019-01-19T01:51:52.706Z,45.17
2019-01-19T01:54:44.653Z,46.93
2019-01-19T01:57:37.714Z,48.50
2019-01-19T02:00:35.446Z,36.93
2019-01-19T02:03:43.157Z,42.30
2019-01-19T02:06:38.701Z,41.33
2019-01-19T02:09:51.129Z,45.17
2019-01-19T02:12:57.145Z,40.13
2019-01-19T02:16:12.540Z,34.67
2019-01-19T02:19:08.353Z,38.07
2019-01-19T02:21:54.617Z,35.03
2019-01-19T02:25:09.305Z,41.87
2019-01-19T02:28:15.866Z,42.57
2019-01-19T02:31:33.533Z,48.30
2019-01-19T02:34:13.479Z,55.37
2019-01-19T02:37:14.198Z,45.63
2019-01-19T02:40:35.553Z,49.20
2019-01-19T02:43:33.704Z,42.50
2019-01-19T02:46:18.606Z,46.63
2019-01-19T02:49:16.086Z,51.33
2019-01-19T02:52:34.828Z,45.47
2019-01-19T02:55:28.981Z,38.57
2019-01-19T02:58:41.121Z,43.13
2019-01-19T03:01:34.076Z,40.40
2019-01-19T03:04:32.914Z,38.87
2019-01-19T03:07:19.770Z,34.63
2019-01-19T03:10:44.461Z,30.73
2019-01-19T03:13:34.203Z,30.50
2019-01-19T03:16:48.982Z,24.77
2019-01-19T03:19:51.925Z,24.40
2019-01-19T03:22:59.313Z,21.03
2019-01-19T03:25:57.265Z,31.27
2019-01-19T03:29:00.241Z,29.10
2019-01-19T03:32:10.132Z,25.27
2019-01-19T03:35:21.340Z,25.60
2019-01-19T03:38:26.455Z,26.57
2019-01-19T03:41:27.659Z,29.23
2019-01-19T03:44:44.342Z,28.73
2019-01-19T03:48:07.951Z,25.10
2019-01-19T03:51:03.837Z,23.43
2019-01-19T03:54:10.401Z,19.93
2019-01-19T03:57:01.789Z,20.80
2019-01-19T04:00:00.786Z,23.13
2019-01-19T04:03:15.889Z,29.53
2019-01-19T04:06:20.306Z,23.80
2019-01-19T04:09:31.689Z,27.80
2019-01-19T04:12:41.553Z,23.63
2019-01-19T04:15:46.380Z,27.77
2019-01-19T04:18:38.049Z,27.37
2019-01-19T04:21:34.463Z,29.93
2019-01-19T04:24:09.377Z,27.40
2019-01-19T04:26:39.965Z,22.20
2019-01-19T04:29:07.686Z,27.17
2019-01-19T04:31:35.393Z,27.83
2019-01-19T04:34:03.597Z,30.07
2019-01-19T04:36:31.596Z,31.43
2019-01-19T04:39:00.437Z,28.23
2019-01-19T04:41:28.170Z,33.67
2019-01-19T04:43:55.880Z,31.43
2019-01-19T04:46:23.597Z,31.30
2019-01-19T04:48:51.606Z,20.77
2019-01-19T04:51:19.334Z,26.53
2019-01-19T04:53:47.059Z,20.37
2019-01-19T04:56:14.774Z,24.07
2019-01-19T04:58:42.491Z,20.83
2019-01-19T05:01:10.221Z,22.70
2019-01-19T05:03:37.914Z,22.10
2019-01-19T05:06:12.186Z,22.87
2019-01-19T05:08:35.165Z,24.17
2019-01-19T05:11:02.908Z,22.80
2019-01-19T05:13:30.609Z,26.27
2019-01-19T05:15:58.333Z,21.63
2019-01-19T05:18:26.169Z,22.13
2019-01-19T05:20:54.091Z,29.97
2019-01-19T05:23:22.106Z,24.07
2019-01-19T05:25:49.835Z,26.80
2019-01-19T05:28:17.534Z,27.13
2019-01-19T05:30:45.254Z,22.10
2019-01-19T05:33:12.965Z,24.13
2019-01-19T05:35:40.725Z,24.33
2019-01-19T05:38:08.422Z,18.90
2019-01-19T05:40:36.321Z,18.40
2019-01-19T05:43:04.133Z,22.20
2019-01-19T05:45:31.844Z,21.93
2019-01-19T05:47:59.565Z,17.30
2019-01-19T05:50:27.273Z,16.93
2019-01-19T05:52:55.000Z,15.73
2019-01-19T05:55:22.708Z,17.47
2019-01-19T05:57:50.432Z,26.70
2019-01-19T06:00:26.570Z,13.63
2019-01-19T06:02:54.281Z,15.93
2019-01-19T06:05:21.974Z,15.87
2019-01-19T06:07:49.697Z,14.93
2019-01-19T06:10:17.397Z,19.90
2019-01-19T06:12:45.134Z,18.13
2019-01-19T06:15:13.589Z,14.33
2019-01-19T06:17:41.473Z,14.33
2019-01-19T06:20:10.473Z,15.53
2019-01-19T06:22:38.250Z,16.47
2019-01-19T06:25:07.256Z,17.97
2019-01-19T06:27:34.967Z,15.50
2019-01-19T06:30:02.945Z,15.90
2019-01-19T06:32:30.677Z,17.73
2019-01-19T06:34:58.391Z,14.93
2019-01-19T06:37:26.110Z,17.27
2019-01-19T06:39:53.836Z,14.03
2019-01-19T06:42:21.542Z,17.40
2019-01-19T06:44:49.245Z,14.47
2019-01-19T06:47:16.971Z,12.90
2019-01-19T06:49:44.669Z,20.20
2019-01-19T06:52:12.374Z,15.97
2019-01-19T06:54:40.190Z,19.57
2019-01-19T06:57:07.906Z,15.10
2019-01-19T06:59:40.940Z,17.63
2019-01-19T07:02:08.782Z,21.37
2019-01-19T07:04:36.525Z,16.87
2019-01-19T07:07:04.232Z,18.53
2019-01-19T07:09:31.953Z,13.97
2019-01-19T07:11:59.865Z,18.00
2019-01-19T07:14:27.650Z,16.27
2019-01-19T07:16:55.350Z,15.83
2019-01-19T07:19:23.096Z,18.00
2019-01-19T07:21:50.813Z,17.00
2019-01-19T07:24:18.533Z,20.73
2019-01-19T07:26:46.237Z,19.17
2019-01-19T07:29:13.987Z,17.93
2019-01-19T07:31:41.746Z,19.43
2019-01-19T07:34:09.445Z,19.77
2019-01-19T07:36:37.193Z,17.30
2019-01-19T07:39:06.899Z,15.00
2019-01-19T07:41:35.584Z,24.97
2019-01-19T07:44:03.338Z,21.23
2019-01-19T07:46:31.354Z,18.53
2019-01-19T07:48:59.059Z,21.10
2019-01-19T07:51:26.777Z,17.27
2019-01-19T07:53:54.503Z,26.23
2019-01-19T07:56:22.203Z,17.53
2019-01-19T07:58:49.919Z,22.98
2019-01-19T08:01:17.629Z,19.67
2019-01-19T08:03:45.341Z,24.03
2019-01-19T08:06:13.101Z,21.50
2019-01-19T08:08:40.814Z,21.83
2019-01-19T08:11:08.542Z,24.43
2019-01-19T08:13:36.225Z,22.80
2019-01-19T08:16:03.957Z,19.13
2019-01-19T08:18:31.652Z,21.30
2019-01-19T08:20:59.378Z,17.17
2019-01-19T08:23:27.077Z,17.00
2019-01-19T08:25:54.801Z,17.70
2019-01-19T08:28:22.511Z,14.97
2019-01-19T08:30:50.225Z,16.70
2019-01-19T08:33:17.929Z,15.00
2019-01-19T08:35:46.233Z,18.10
2019-01-19T08:38:14.043Z,16.87
2019-01-19T08:40:41.760Z,15.33
2019-01-19T08:43:20.505Z,18.20
2019-01-19T08:45:48.281Z,19.10
2019-01-19T08:48:16.370Z,24.07
2019-01-19T08:50:44.149Z,21.03
2019-01-19T08:53:11.796Z,12.70
2019-01-19T08:55:39.529Z,16.97
2019-01-19T08:58:07.356Z,15.80
2019-01-19T09:00:35.097Z,16.60
2019-01-19T09:03:02.793Z,19.60
2019-01-19T09:05:31.321Z,16.73
2019-01-19T09:07:59.036Z,17.80
2019-01-19T09:10:26.753Z,12.00
2019-01-19T09:12:54.627Z,14.40
2019-01-19T09:15:22.516Z,17.23
2019-01-19T09:17:50.221Z,16.27
2019-01-19T09:20:17.936Z,14.43
2019-01-19T09:22:47.747Z,14.43
2019-01-19T09:25:15.524Z,14.60
2019-01-19T09:27:43.225Z,10.70
2019-01-19T09:30:14.307Z,14.93
2019-01-19T09:32:42.277Z,17.03
2019-01-19T09:35:10.051Z,13.83
2019-01-19T09:37:40.972Z,12.40
2019-01-19T09:40:08.266Z,14.73
2019-01-19T09:42:36.013Z,12.37
2019-01-19T09:45:04.113Z,13.97
2019-01-19T09:47:31.853Z,12.90
2019-01-19T09:49:59.573Z,11.87
2019-01-19T09:52:27.294Z,15.37
2019-01-19T09:54:55.008Z,14.20
2019-01-19T09:57:22.730Z,10.40
2019-01-19T09:59:50.425Z,10.50
2019-01-19T10:02:18.145Z,9.70
2019-01-19T10:04:45.905Z,14.63
2019-01-19T10:07:13.622Z,9.93
2019-01-19T10:09:41.333Z,12.30
2019-01-19T10:12:09.054Z,13.80
2019-01-19T10:14:36.761Z,10.77
2019-01-19T10:17:04.473Z,10.13
2019-01-19T10:19:32.169Z,14.07
2019-01-19T10:21:59.941Z,11.73
2019-01-19T10:24:27.649Z,8.97
2019-01-19T10:26:55.373Z,10.10
2019-01-19T10:29:23.391Z,13.00
2019-01-19T10:31:51.113Z,10.57
2019-01-19T10:34:18.845Z,8.23
2019-01-19T10:36:46.545Z,8.53
2019-01-19T10:39:14.342Z,11.53
2019-01-19T10:41:42.199Z,11.13
2019-01-19T10:44:09.931Z,11.87
2019-01-19T10:46:37.673Z,9.07
2019-01-19T10:49:05.387Z,11.53
2019-01-19T10:51:33.093Z,10.63
2019-01-19T10:54:00.817Z,7.40
2019-01-19T10:56:28.546Z,9.37
2019-01-19T10:58:56.290Z,11.67
2019-01-19T11:01:23.999Z,8.30
2019-01-19T11:03:51.726Z,11.00
2019-01-19T11:06:19.429Z,9.77
2019-01-19T11:08:47.162Z,10.40
2019-01-19T11:11:14.957Z,11.97
2019-01-19T11:13:42.685Z,9.73
2019-01-19T11:16:10.406Z,8.33
2019-01-19T11:18:38.101Z,9.43
2019-01-19T11:21:05.842Z,9.77
2019-01-19T11:23:39.761Z,12.73
2019-01-19T11:26:03.125Z,10.40
2019-01-19T11:28:30.889Z,9.27
2019-01-19T11:30:58.605Z,8.40
2019-01-19T11:33:26.321Z,5.20
2019-01-19T11:35:54.142Z,10.20
2019-01-19T11:38:21.816Z,8.17
2019-01-19T11:40:49.530Z,11.43
2019-01-19T11:43:17.327Z,5.20
2019-01-19T11:45:45.068Z,3.03
2019-01-19T11:48:12.785Z,4.60
2019-01-19T11:50:40.505Z,5.80
2019-01-19T11:53:08.209Z,5.03
2019-01-19T11:55:35.957Z,6.63
2019-01-19T11:58:05.118Z,9.53
2019-01-19T12:00:34.761Z,6.20
2019-01-19T12:03:02.465Z,4.00
2019-01-19T12:05:30.205Z,7.60
2019-01-19T12:07:57.909Z,3.93
2019-01-19T12:10:27.788Z,8.00
2019-01-19T12:12:55.514Z,2.73
2019-01-19T12:15:23.225Z,5.93
2019-01-19T12:17:50.941Z,2.90
2019-01-19T12:20:26.866Z,6.93
2019-01-19T12:22:54.573Z,3.93
2019-01-19T12:25:22.597Z,3.27
2019-01-19T12:27:50.286Z,3.00
2019-01-19T12:30:22.849Z,4.80
2019-01-19T12:32:50.554Z,4.73
2019-01-19T12:35:18.293Z,4.60
2019-01-19T12:37:46.013Z,6.97
2019-01-19T12:40:15.217Z,9.03
2019-01-19T12:42:43.894Z,3.53
2019-01-19T12:45:15.368Z,3.90
2019-01-19T12:47:43.069Z,4.17
2019-01-19T12:50:17.026Z,3.10
2019-01-19T12:52:47.145Z,5.87
2019-01-19T12:55:15.173Z,5.07
2019-01-19T12:57:42.905Z,7.40
2019-01-19T13:00:14.179Z,5.17
2019-01-19T13:02:41.901Z,8.77
2019-01-19T13:05:16.364Z,3.43
2019-01-19T13:07:44.505Z,4.33
2019-01-19T13:10:19.017Z,4.53
2019-01-19T13:13:02.757Z,5.10
2019-01-19T13:16:13.996Z,3.50
2019-01-19T13:19:06.793Z,4.63
2019-01-19T13:22:30.678Z,5.37
2019-01-19T13:25:39.647Z,2.60
2019-01-19T13:28:49.269Z,4.70
2019-01-19T13:32:04.565Z,3.67
2019-01-19T13:35:09.703Z,10.47
2019-01-19T13:38:16.281Z,5.33
2019-01-19T13:41:19.270Z,5.90
2019-01-19T13:44:15.869Z,8.47
2019-01-19T13:47:19.465Z,6.60
2019-01-19T13:50:18.913Z,5.77
2019-01-19T13:53:36.464Z,8.07
2019-01-19T13:56:55.383Z,5.63
2019-01-19T14:00:00.362Z,5.17
2019-01-19T14:03:23.885Z,6.20
2019-01-19T14:06:10.785Z,4.37
2019-01-19T14:09:23.870Z,5.20
2019-01-19T14:12:32.122Z,7.80
2019-01-19T14:15:47.642Z,5.37
2019-01-19T14:18:33.757Z,7.13
2019-01-19T14:21:58.447Z,6.67
2019-01-19T14:25:10.523Z,3.53
2019-01-19T14:28:21.389Z,6.40
2019-01-19T14:31:18.362Z,3.47
2019-01-19T14:34:21.233Z,3.37
2019-01-19T14:37:08.888Z,6.17
2019-01-19T14:40:23.337Z,11.93
2019-01-19T14:43:47.903Z,10.20
2019-01-19T14:46:57.642Z,7.37
2019-01-19T14:50:19.297Z,8.60
2019-01-19T14:53:27.481Z,10.33
2019-01-19T14:56:43.170Z,5.27
2019-01-19T14:59:55.317Z,4.43
2019-01-19T15:02:45.551Z,4.97
2019-01-19T15:06:07.017Z,6.50
2019-01-19T15:09:15.001Z,4.00
2019-01-19T15:12:45.658Z,4.83
2019-01-19T15:16:09.532Z,7.70
2019-01-19T15:19:17.525Z,4.90
2019-01-19T15:22:21.741Z,2.87
2019-01-19T15:25:16.773Z,2.77
2019-01-19T15:28:05.609Z,2.50
2019-01-19T15:30:58.324Z,8.43
2019-01-19T15:34:16.353Z,11.13
2019-01-19T15:37:18.029Z,12.43
2019-01-19T15:40:03.545Z,5.60
2019-01-19T15:43:12.738Z,4.97
2019-01-19T15:46:10.829Z,6.30
2019-01-19T15:49:15.581Z,14.33
2019-01-19T15:52:32.718Z,6.63
2019-01-19T15:56:02.949Z,7.43
2019-01-19T15:58:39.586Z,7.10
2019-01-19T16:01:56.597Z,6.23
2019-01-19T16:05:07.821Z,11.27
2019-01-19T16:08:29.033Z,6.37
2019-01-19T16:11:24.740Z,12.67
2019-01-19T16:14:43.109Z,13.93
2019-01-19T16:17:36.504Z,14.23
2019-01-19T16:20:57.021Z,55.33
2019-01-19T16:23:49.741Z,21.40
2019-01-19T16:26:54.776Z,37.50
2019-01-19T16:29:48.674Z,11.67
2019-01-19T16:33:07.205Z,16.27
2019-01-19T16:36:00.402Z,18.77
2019-01-19T16:39:05.868Z,17.63
2019-01-19T16:42:09.771Z,48.47
2019-01-19T16:45:21.913Z,31.47
2019-01-19T16:48:12.841Z,17.10
2019-01-19T16:51:24.493Z,19.50
2019-01-19T16:54:35.935Z,30.37
2019-01-19T16:57:45.569Z,53.77
2019-01-19T17:00:53.547Z,51.33
2019-01-19T17:03:49.516Z,52.60
2019-01-19T17:06:50.853Z,47.37
2019-01-19T17:09:35.292Z,37.50
2019-01-19T17:12:50.690Z,20.07
2019-01-19T17:15:56.985Z,22.63
2019-01-19T17:18:50.631Z,17.70
2019-01-19T17:21:51.116Z,23.30
2019-01-19T17:24:45.541Z,26.33
2019-01-19T17:27:43.731Z,22.40
2019-01-19T17:30:35.597Z,44.63
2019-01-19T17:33:51.017Z,38.57
2019-01-19T17:36:43.144Z,27.73
2019-01-19T17:39:44.726Z,32.10
2019-01-19T17:42:53.781Z,197.73
2019-01-19T17:46:06.288Z,75.03
2019-01-19T17:49:00.606Z,79.30
2019-01-19T17:52:19.142Z,57.87
2019-01-19T17:55:24.662Z,58.60
2019-01-19T17:58:40.252Z,37.27
2019-01-19T18:01:46.051Z,37.37
2019-01-19T18:04:40.105Z,33.20
2019-01-19T18:07:37.441Z,41.50
2019-01-19T18:10:25.156Z,60.70
2019-01-19T18:13:27.537Z,36.97
2019-01-19T18:16:42.873Z,36.73
2019-01-19T18:19:44.161Z,42.17
2019-01-19T18:22:52.929Z,47.77
2019-01-19T18:26:08.741Z,50.37
2019-01-19T18:29:02.705Z,55.67
2019-01-19T18:32:00.708Z,93.23
2019-01-19T18:35:22.040Z,71.07
2019-01-19T18:38:36.342Z,51.23
2019-01-19T18:41:28.873Z,50.07
2019-01-19T18:44:32.083Z,52.20
2019-01-19T18:47:27.234Z,63.60
2019-01-19T18:50:50.954Z,68.10
2019-01-19T18:54:04.761Z,47.77
2019-01-19T18:57:10.893Z,72.63
2019-01-19T18:59:59.843Z,99.50
2019-01-19T19:03:02.693Z,67.50
2019-01-19T19:06:36.394Z,86.83
2019-01-19T19:09:39.148Z,53.40
2019-01-19T19:12:26.820Z,50.97
2019-01-19T19:16:03.806Z,77.97
2019-01-19T19:19:16.262Z,46.17
2019-01-19T19:22:24.900Z,47.43
2019-01-19T19:25:21.591Z,39.13
2019-01-19T19:28:52.436Z,54.07
2019-01-19T19:31:45.853Z,56.87
2019-01-19T19:34:56.090Z,48.23
2019-01-19T19:38:08.676Z,45.03
2019-01-19T19:41:33.586Z,34.57
2019-01-19T19:44:42.569Z,39.17
2019-01-19T19:47:44.849Z,47.03
2019-01-19T19:50:36.727Z,40.40
2019-01-19T19:53:04.517Z,28.93
2019-01-19T19:55:31.056Z,28.37
2019-01-19T19:57:58.753Z,30.33
2019-01-19T20:00:26.645Z,31.10
2019-01-19T20:02:54.375Z,24.97
2019-01-19T20:05:22.133Z,33.63
2019-01-19T20:07:49.841Z,28.57
2019-01-19T20:10:17.544Z,47.17
2019-01-19T20:12:45.230Z,44.83
2019-01-19T20:15:12.937Z,37.63
2019-01-19T20:17:40.664Z,33.43
2019-01-19T20:20:08.449Z,23.70
2019-01-19T20:22:36.186Z,25.57
2019-01-19T20:25:04.114Z,24.70
2019-01-19T20:27:31.857Z,32.17
2019-01-19T20:29:59.561Z,26.30
2019-01-19T20:32:27.272Z,26.47
2019-01-19T20:34:55.027Z,36.57
2019-01-19T20:37:22.741Z,32.03
2019-01-19T20:39:50.475Z,103.93
2019-01-19T20:42:18.174Z,68.40
2019-01-19T20:44:45.889Z,217.77
2019-01-19T20:47:13.616Z,154.20
2019-01-19T20:49:41.349Z,88.60
2019-01-19T20:52:09.095Z,82.47
2019-01-19T20:54:36.789Z,84.43
2019-01-19T20:57:04.591Z,105.77
2019-01-19T20:59:32.293Z,138.70
2019-01-19T21:02:00.040Z,61.77
2019-01-19T21:04:27.754Z,37.23
2019-01-19T21:06:55.473Z,42.03
2019-01-19T21:09:23.213Z,39.73
2019-01-19T21:11:56.193Z,30.20
2019-01-19T21:14:23.976Z,41.17
2019-01-19T21:16:51.665Z,15.67
2019-01-19T21:19:19.401Z,16.17
2019-01-19T21:21:47.150Z,119.65
2019-01-19T21:24:14.862Z,60.27
2019-01-19T21:26:42.595Z,30.27
2019-01-19T21:29:10.301Z,25.43
2019-01-19T21:31:38.036Z,21.83
2019-01-19T21:34:05.753Z,26.27
2019-01-19T21:36:33.461Z,52.13
2019-01-19T21:39:01.194Z,32.57
2019-01-19T21:41:28.902Z,58.00
2019-01-19T21:43:56.667Z,35.07
2019-01-19T21:46:24.370Z,30.90
2019-01-19T21:48:52.103Z,34.87
2019-01-19T21:51:19.857Z,24.30
2019-01-19T21:53:47.575Z,24.60
2019-01-19T21:56:15.293Z,22.73
2019-01-19T21:58:42.989Z,20.27
2019-01-19T22:01:10.813Z,26.03
2019-01-19T22:03:38.517Z,22.63
2019-01-19T22:06:06.205Z,24.80
2019-01-19T22:08:33.949Z,30.20
2019-01-19T22:11:01.658Z,26.37
2019-01-19T22:13:29.391Z,27.87
2019-01-19T22:15:57.117Z,27.87
2019-01-19T22:18:24.844Z,31.70
2019-01-19T22:20:52.545Z,43.30
2019-01-19T22:23:20.269Z,38.37
2019-01-19T22:25:47.973Z,37.60
2019-01-19T22:28:15.693Z,29.03
2019-01-19T22:30:43.417Z,46.80
2019-01-19T22:33:11.151Z,63.00
2019-01-19T22:35:38.986Z,42.97
2019-01-19T22:38:06.689Z,66.20
2019-01-19T22:40:34.431Z,47.43
2019-01-19T22:43:05.009Z,33.30
2019-01-19T22:45:32.727Z,47.13
2019-01-19T22:48:00.463Z,41.23
2019-01-19T22:50:28.242Z,47.33
2019-01-19T22:52:55.959Z,40.60
2019-01-19T22:55:23.719Z,37.40
2019-01-19T22:57:51.475Z,42.60
2019-01-19T23:00:56.422Z,38.07
2019-01-19T23:03:24.153Z,48.83
2019-01-19T23:05:51.866Z,48.63
2019-01-19T23:08:20.648Z,42.30
2019-01-19T23:10:49.209Z,35.80
2019-01-19T23:13:16.922Z,34.57
2019-01-19T23:15:44.665Z,36.73
2019-01-19T23:18:12.469Z,38.93
2019-01-19T23:20:40.193Z,33.27
2019-01-19T23:23:16.067Z,32.50
2019-01-19T23:25:43.786Z,25.07
2019-01-19T23:28:11.513Z,27.17
2019-01-19T23:30:39.211Z,32.73
2019-01-19T23:33:06.942Z,28.00
2019-01-19T23:35:34.652Z,27.13
2019-01-19T23:38:02.345Z,43.77
2019-01-19T23:40:30.069Z,52.90
2019-01-19T23:42:57.768Z,40.33
2019-01-19T23:45:25.486Z,29.37
2019-01-19T23:47:53.182Z,28.80
2019-01-19T23:50:20.933Z,27.53
2019-01-19T23:52:48.696Z,31.50
2019-01-19T23:55:16.445Z,34.50
2019-01-19T23:57:44.225Z,28.37
